• Join FlightAware (Why Join?)
  • Login
  • US Flag 
11:41AM EDT


 

Airport Tracker/Info


-or-


 

Live Flight TrackerFlight Track Log ✈ LYM134 ✈ 11-Jul-2013 ✈ KAPA - KPUB

Flight Track Log - Related Links

Times and Time Zones

All times are in EDT time to prevent confusion due to time zone crossing. See the LYM134 flight status page for this flight to view local times or setup timezone preferences in your user account.

Time Position Orientation Groundspeed Altitude Reporting Facility
EDT Latitude Longitude Course Direction KTS MPH feet Rate Location/Type
08:33PM 39.5500 -104.8500 180° South 149 171 7,000  Level Denver TRACON
08:34PM 39.5000 -104.8500 180° South 149 171 9,000 1,860 Climbing Denver TRACON
08:35PM 39.4667 -104.8500 180° South 167 192 10,800 960 Climbing Denver TRACON
08:36PM 39.4000 -104.8333 169° South 217 250 10,900 60 Climbing Denver TRACON
08:38PM 39.3283 -104.8094 166° South 255 293 11,000  Climbing Denver Center
08:39PM 39.2392 -104.7831 167° South 265 305 11,000 -60 Level Denver Center
08:40PM 39.1628 -104.7556 164° South 266 306 10,900 -120 Descending Denver Center
08:41PM 39.0894 -104.7283 164° South 262 302 10,800  Descending Denver Center
08:42PM 39.0183 -104.7036 165° South 264 304 10,900  Climbing Denver Center
08:43PM 38.9489 -104.6772 164° South 262 302 10,800  Descending Denver Center
08:44PM 38.8767 -104.6528 165° South 267 307 10,900 60 Climbing Denver Center
08:45PM 38.7842 -104.6169 163° South 270 311 11,000  Climbing Denver Center
08:46PM 38.7144 -104.5942 166° South 271 312 10,900 -120 Descending Denver Center
08:47PM 38.6317 -104.5656 165° South 274 315 10,800 -240 Descending Denver Center
08:48PM 38.5608 -104.5400 164° South 276 318 10,500 -600 Descending Denver Center
08:49PM 38.4728 -104.5353 178° South 279 321 9,600 -1,080 Descending Denver Center
08:50PM 38.4000 -104.5494 189° South 276 318 8,300 -1,320 Descending Denver Center
08:51PM 38.3297 -104.5731 195° South 244 281 7,000 -900 Descending Denver Center
08:52PM 38.2836 -104.5853 192° South 219 252 6,500 -540 Descending Denver Center
08:55PM 38.2891 -104.4965 270° West  Level Estimated
09:02PM 38.2891 -104.4965 270° West  Level Estimated
09:03PM 38.2891 -104.4965 270° West  Level Estimated
09:04PM 38.2891 -104.4965 270° West  Level Estimated